createdAt,value
2019-01-08T00:00:49.231Z,1.35
2019-01-08T00:03:20.040Z,1.30
2019-01-08T00:06:10.080Z,1.29
2019-01-08T00:08:40.896Z,1.29
2019-01-08T00:11:11.670Z,1.32
2019-01-08T00:14:03.030Z,1.34
2019-01-08T00:16:38.890Z,1.32
2019-01-08T00:19:10.446Z,1.35
2019-01-08T00:21:52.648Z,1.36
2019-01-08T00:24:34.788Z,1.36
2019-01-08T00:27:05.605Z,1.37
2019-01-08T00:29:36.759Z,1.39
2019-01-08T00:32:19.272Z,1.36
2019-01-08T00:34:50.123Z,1.34
2019-01-08T00:37:20.893Z,1.33
2019-01-08T00:39:53.247Z,1.28
2019-01-08T00:42:24.091Z,1.28
2019-01-08T00:44:54.994Z,1.23
2019-01-08T00:47:39.161Z,1.23
2019-01-08T00:50:10.160Z,1.21
2019-01-08T00:55:33.490Z,1.18
2019-01-08T00:58:04.371Z,1.18
2019-01-08T01:00:35.413Z,1.19
2019-01-08T01:03:25.204Z,1.15
2019-01-08T01:05:58.291Z,1.13
2019-01-08T01:08:29.075Z,1.13
2019-01-08T01:11:20.414Z,1.09
2019-01-08T01:13:51.275Z,1.10
2019-01-08T01:16:33.185Z,1.13
2019-01-08T01:19:15.112Z,1.14
2019-01-08T01:22:25.152Z,1.10
2019-01-08T01:24:56.008Z,1.14
2019-01-08T01:27:38.467Z,1.13
2019-01-08T01:30:21.260Z,1.13
2019-01-08T01:32:52.161Z,1.13
2019-01-08T01:35:24.589Z,1.13
2019-01-08T01:37:55.337Z,1.11
2019-01-08T01:40:48.063Z,1.14
2019-01-08T01:49:22.234Z,1.16
2019-01-08T01:54:42.955Z,1.20
2019-01-08T01:57:33.059Z,1.22
2019-01-08T02:00:08.623Z,1.23
2019-01-08T02:02:41.028Z,1.20
2019-01-08T02:05:23.761Z,1.18
2019-01-08T02:10:57.040Z,1.18
2019-01-08T02:13:42.290Z,1.20
2019-01-08T02:16:13.406Z,1.19
2019-01-08T02:19:03.598Z,1.19
2019-01-08T02:21:34.438Z,1.18
2019-01-08T02:24:05.346Z,1.20
2019-01-08T02:26:36.187Z,1.21
2019-01-08T02:29:26.067Z,1.22
2019-01-08T02:31:56.981Z,1.23
2019-01-08T02:34:39.362Z,1.25
2019-01-08T02:37:10.939Z,1.28
2019-01-08T02:39:44.261Z,1.26
2019-01-08T02:42:34.022Z,1.25
2019-01-08T02:45:04.907Z,1.23
2019-01-08T02:47:35.727Z,1.21
2019-01-08T02:50:18.415Z,1.16
2019-01-08T02:52:49.268Z,1.13
2019-01-08T02:55:20.105Z,1.09
2019-01-08T02:58:10.239Z,1.08
2019-01-08T03:00:43.793Z,1.03
2019-01-08T03:03:14.592Z,1.03
2019-01-08T03:05:57.326Z,1.01
2019-01-08T03:08:28.171Z,0.98
2019-01-08T03:10:58.996Z,0.96
2019-01-08T03:13:41.577Z,0.97
2019-01-08T03:16:24.024Z,0.96
2019-01-08T03:19:11.226Z,0.97
2019-01-08T03:21:42.007Z,0.96
2019-01-08T03:24:12.772Z,0.98
2019-01-08T03:26:54.614Z,1.00
2019-01-08T03:29:33.327Z,0.98
2019-01-08T03:32:03.462Z,1.00
2019-01-08T03:34:53.268Z,1.02
2019-01-08T03:37:24.074Z,1.01
2019-01-08T03:39:57.377Z,1.01
2019-01-08T03:42:39.284Z,1.03
2019-01-08T03:45:10.163Z,1.02
2019-01-08T03:47:40.975Z,1.04
2019-01-08T03:50:30.724Z,1.04
2019-01-08T03:55:58.233Z,1.05
2019-01-08T03:58:40.496Z,1.08
2019-01-08T04:01:11.275Z,1.07
2019-01-08T04:03:42.067Z,1.08
2019-01-08T04:06:24.829Z,1.09
2019-01-08T04:09:07.897Z,1.09
2019-01-08T04:11:38.748Z,1.13
2019-01-08T04:14:09.978Z,1.13
2019-01-08T04:16:51.986Z,1.10
2019-01-08T04:19:24.261Z,1.11
2019-01-08T04:25:16.323Z,1.11
2019-01-08T04:27:47.053Z,1.10
2019-01-08T04:30:37.141Z,1.09
2019-01-08T04:33:09.852Z,1.11
2019-01-08T04:35:59.617Z,1.16
2019-01-08T04:38:41.620Z,1.16
2019-01-08T04:41:26.432Z,1.18
2019-01-08T04:43:57.264Z,1.16
2019-01-08T04:46:28.029Z,1.16
2019-01-08T04:49:10.702Z,1.16
2019-01-08T04:51:53.941Z,1.17
2019-01-08T04:54:22.540Z,1.18
2019-01-08T04:57:04.473Z,1.18
2019-01-08T04:59:35.304Z,1.17
2019-01-08T05:02:06.076Z,1.17
2019-01-08T05:04:48.828Z,1.17
2019-01-08T05:07:31.282Z,1.19
2019-01-08T05:10:02.124Z,1.17
2019-01-08T05:12:34.976Z,1.17
2019-01-08T05:15:17.723Z,1.16
2019-01-08T05:18:00.303Z,1.14
2019-01-08T05:20:31.104Z,1.15
2019-01-08T05:26:27.025Z,1.18
2019-01-08T05:28:58.441Z,1.18
2019-01-08T05:31:29.712Z,1.19
2019-01-08T05:34:19.740Z,1.19
2019-01-08T05:36:50.769Z,1.20
2019-01-08T05:39:21.519Z,1.25
2019-01-08T05:41:52.304Z,1.27
2019-01-08T05:44:44.429Z,1.28
2019-01-08T05:47:16.510Z,1.32
2019-01-08T05:50:07.009Z,1.33
2019-01-08T05:52:49.200Z,1.34
2019-01-08T05:55:22.385Z,1.35
2019-01-08T06:01:12.625Z,1.39
2019-01-08T06:03:43.470Z,1.38
2019-01-08T06:09:36.520Z,1.41
2019-01-08T06:18:40.547Z,1.42
2019-01-08T06:21:22.600Z,1.42
2019-01-08T06:24:05.295Z,1.46
2019-01-08T06:26:39.883Z,1.45
2019-01-08T06:29:10.670Z,1.43
2019-01-08T06:32:00.605Z,1.43
2019-01-08T06:34:33.048Z,1.44
2019-01-08T06:37:03.905Z,1.43
2019-01-08T06:39:34.787Z,1.45
2019-01-08T06:42:18.445Z,1.45
2019-01-08T06:45:01.496Z,1.42
2019-01-08T06:47:32.280Z,1.42
2019-01-08T06:53:44.314Z,1.45
2019-01-08T06:56:15.179Z,1.47
2019-01-08T06:58:45.932Z,1.46
2019-01-08T07:01:27.864Z,1.44
2019-01-08T07:04:10.348Z,1.47
2019-01-08T07:06:41.133Z,1.45
2019-01-08T07:09:11.905Z,1.47
2019-01-08T07:11:56.218Z,1.43
2019-01-08T07:14:38.882Z,1.42
2019-01-08T07:17:09.706Z,1.46
2019-01-08T07:19:40.489Z,1.46
2019-01-08T07:22:30.322Z,1.47
2019-01-08T07:25:01.172Z,1.52
2019-01-08T07:27:32.339Z,1.54
2019-01-08T07:30:04.720Z,1.56
2019-01-08T07:36:02.944Z,1.62
2019-01-08T07:38:34.143Z,1.68
2019-01-08T07:44:28.213Z,1.72
2019-01-08T07:50:23.804Z,1.72
2019-01-08T07:52:56.315Z,1.76
2019-01-08T08:01:27.760Z,1.84
2019-01-08T08:04:10.137Z,1.83
2019-01-08T08:06:40.929Z,1.89
2019-01-08T08:09:11.712Z,1.94
2019-01-08T08:11:54.312Z,1.96
2019-01-08T08:14:37.197Z,1.97
2019-01-08T08:17:08.216Z,1.99
2019-01-08T08:19:39.263Z,2.00
2019-01-08T08:22:21.231Z,2.01
2019-01-08T08:25:08.860Z,2.02
2019-01-08T08:30:26.354Z,2.04
2019-01-08T08:33:17.133Z,2.04
2019-01-08T08:35:48.110Z,2.10
2019-01-08T08:38:29.964Z,2.09
2019-01-08T08:41:12.427Z,2.12
2019-01-08T08:46:47.850Z,2.13
2019-01-08T08:49:49.416Z,2.14
2019-01-08T08:52:20.242Z,2.19
2019-01-08T08:54:56.528Z,2.19
2019-01-08T08:57:46.405Z,2.19
2019-01-08T09:00:17.614Z,2.20
2019-01-08T09:02:48.332Z,2.20
2019-01-08T09:05:19.640Z,2.20
2019-01-08T09:10:50.908Z,2.24
2019-01-08T09:13:22.194Z,2.26
2019-01-08T09:15:53.083Z,2.24
2019-01-08T09:18:35.764Z,2.26
2019-01-08T09:21:20.054Z,2.27
2019-01-08T09:23:53.304Z,2.27
2019-01-08T09:32:54.708Z,2.21
2019-01-08T09:35:25.567Z,2.21
2019-01-08T09:37:59.331Z,2.17
2019-01-08T09:46:34.132Z,2.15
2019-01-08T09:49:04.982Z,2.16
2019-01-08T09:51:47.265Z,2.17
2019-01-08T09:54:29.833Z,2.14
2019-01-08T09:57:19.465Z,2.13
2019-01-08T09:59:50.665Z,2.15
2019-01-08T10:02:32.735Z,2.23
2019-01-08T10:05:14.692Z,2.27
2019-01-08T10:10:46.071Z,2.33
2019-01-08T10:13:28.523Z,2.32
2019-01-08T10:22:19.371Z,2.40
2019-01-08T10:24:52.380Z,2.41
2019-01-08T10:27:34.921Z,2.46
2019-01-08T10:30:06.520Z,2.48
2019-01-08T10:32:56.662Z,2.48
2019-01-08T10:35:39.887Z,2.51
2019-01-08T10:38:10.761Z,2.52
2019-01-08T10:40:43.209Z,2.47
2019-01-08T10:43:14.571Z,2.47
2019-01-08T10:45:45.468Z,2.46
2019-01-08T10:48:35.517Z,2.47
2019-01-08T10:54:01.404Z,2.46
2019-01-08T10:56:44.415Z,2.43
2019-01-08T10:59:37.036Z,2.48
2019-01-08T11:05:01.519Z,2.49
2019-01-08T11:07:34.873Z,2.53
2019-01-08T11:13:07.796Z,2.52
2019-01-08T11:15:49.666Z,2.52
2019-01-08T11:18:20.556Z,2.53
2019-01-08T11:21:03.262Z,2.53
2019-01-08T11:23:36.770Z,2.53
2019-01-08T11:26:07.580Z,2.53
2019-01-08T11:28:57.606Z,2.54
2019-01-08T11:31:28.446Z,2.51
2019-01-08T11:34:18.527Z,2.51
2019-01-08T11:36:49.477Z,2.46
2019-01-08T11:39:20.713Z,2.46
2019-01-08T11:42:22.460Z,2.48
2019-01-08T11:45:12.507Z,2.49
2019-01-08T11:50:23.234Z,2.50
2019-01-08T11:53:05.909Z,2.51
2019-01-08T11:59:01.266Z,2.59
2019-01-08T12:01:32.207Z,2.66
2019-01-08T12:04:14.778Z,2.67
2019-01-08T12:06:57.245Z,2.68
2019-01-08T12:09:28.068Z,2.68
2019-01-08T12:14:52.309Z,2.67
2019-01-08T12:17:23.115Z,2.65
2019-01-08T12:19:56.649Z,2.61
2019-01-08T12:22:45.477Z,2.59
2019-01-08T12:25:35.302Z,2.55
2019-01-08T12:31:08.787Z,2.41
2019-01-08T12:33:58.743Z,2.35
2019-01-08T12:36:43.302Z,2.34
2019-01-08T12:42:14.591Z,2.35
2019-01-08T12:44:45.559Z,2.29
2019-01-08T12:47:38.411Z,2.27
2019-01-08T12:50:11.750Z,2.25
2019-01-08T12:52:42.648Z,2.22
2019-01-08T12:55:32.746Z,2.17
2019-01-08T12:58:06.010Z,2.12
2019-01-08T13:00:38.682Z,2.05
2019-01-08T13:06:12.234Z,1.89
2019-01-08T13:08:44.656Z,1.82
2019-01-08T13:11:28.523Z,1.79
2019-01-08T13:14:52.189Z,1.75
2019-01-08T13:17:15.983Z,1.70
2019-01-08T13:19:48.712Z,1.66
2019-01-08T13:22:19.875Z,1.66
2019-01-08T13:27:54.639Z,1.76
2019-01-08T13:30:37.357Z,1.86
2019-01-08T13:33:08.197Z,1.90
2019-01-08T13:38:24.442Z,1.97
2019-01-08T13:40:56.813Z,2.04
2019-01-08T13:43:33.441Z,2.07
2019-01-08T13:46:04.445Z,2.10
2019-01-08T13:48:35.472Z,2.14
2019-01-08T13:51:17.409Z,2.17
2019-01-08T13:54:00.199Z,2.17
2019-01-08T13:56:34.144Z,2.19
2019-01-08T13:59:24.337Z,2.22
2019-01-08T14:01:55.317Z,2.23
2019-01-08T14:04:26.451Z,2.27
2019-01-08T14:07:08.865Z,2.28
2019-01-08T14:09:40.472Z,2.32
2019-01-08T14:12:23.850Z,2.33
2019-01-08T14:15:13.665Z,2.34
2019-01-08T14:17:45.573Z,2.36
2019-01-08T14:20:17.353Z,2.38
2019-01-08T14:23:01.091Z,2.40
2019-01-08T14:25:50.894Z,2.41
2019-01-08T14:28:40.702Z,2.42
2019-01-08T14:34:24.657Z,2.42
2019-01-08T14:37:06.855Z,2.43
2019-01-08T14:39:37.726Z,2.44
2019-01-08T14:42:08.465Z,2.43
2019-01-08T14:44:50.330Z,2.44
2019-01-08T14:47:33.337Z,2.45
2019-01-08T14:50:06.016Z,2.46
2019-01-08T14:52:51.182Z,2.47
2019-01-08T14:55:27.961Z,2.48
2019-01-08T14:58:30.682Z,2.50
2019-01-08T15:04:00.306Z,2.48
2019-01-08T15:07:02.726Z,2.47
2019-01-08T15:09:31.944Z,2.48
2019-01-08T15:15:30.021Z,2.52
2019-01-08T15:18:00.872Z,2.54
2019-01-08T15:20:31.980Z,2.53
2019-01-08T15:23:22.378Z,2.51
2019-01-08T15:26:06.734Z,2.49
2019-01-08T15:29:02.382Z,2.49
2019-01-08T15:34:47.039Z,2.56
2019-01-08T15:37:21.464Z,2.59
2019-01-08T15:42:45.393Z,2.65
2019-01-08T15:45:17.952Z,2.68
2019-01-08T15:47:48.756Z,2.70
2019-01-08T15:50:43.743Z,2.67
2019-01-08T15:53:14.594Z,2.66
2019-01-08T15:55:45.372Z,2.61
2019-01-08T15:58:27.741Z,2.57
2019-01-08T16:01:09.724Z,2.57
2019-01-08T16:04:10.327Z,2.52
2019-01-08T16:06:43.710Z,2.48
2019-01-08T16:09:26.080Z,2.46
2019-01-08T16:11:56.977Z,2.43
2019-01-08T16:14:30.316Z,2.39
2019-01-08T16:17:20.364Z,2.38
2019-01-08T16:19:51.264Z,2.41
2019-01-08T16:25:26.227Z,2.38
2019-01-08T16:30:52.434Z,2.37
2019-01-08T16:33:23.300Z,2.42
2019-01-08T16:35:54.145Z,2.42
2019-01-08T16:38:37.703Z,2.42
2019-01-08T16:41:46.497Z,2.40
2019-01-08T16:44:17.278Z,2.38
2019-01-08T16:50:03.977Z,2.42
2019-01-08T16:52:34.845Z,2.42
2019-01-08T16:55:17.555Z,2.42
2019-01-08T16:58:00.111Z,2.41
2019-01-08T17:00:31.679Z,2.44
2019-01-08T17:06:24.583Z,2.43
2019-01-08T17:11:45.919Z,2.48
2019-01-08T17:14:16.775Z,2.44
2019-01-08T17:16:47.588Z,2.44
2019-01-08T17:19:37.638Z,2.40
2019-01-08T17:22:29.465Z,2.42
2019-01-08T17:25:00.418Z,2.44
2019-01-08T17:27:51.734Z,2.48
2019-01-08T17:33:23.503Z,2.44
2019-01-08T17:36:13.818Z,2.45
2019-01-08T17:41:45.224Z,2.44
2019-01-08T17:44:34.992Z,2.41
2019-01-08T17:50:27.522Z,2.40
2019-01-08T17:52:58.839Z,2.41
2019-01-08T17:55:29.739Z,2.37
2019-01-08T17:58:38.775Z,2.34
2019-01-08T18:01:13.062Z,2.35
2019-01-08T18:03:44.001Z,2.32
2019-01-08T18:06:26.722Z,2.34
2019-01-08T18:09:08.735Z,2.36
2019-01-08T18:11:59.492Z,2.35
2019-01-08T18:20:17.304Z,2.21
2019-01-08T18:23:01.007Z,2.23
2019-01-08T18:25:45.093Z,2.21
2019-01-08T18:28:24.626Z,2.13
2019-01-08T18:31:26.346Z,2.00
2019-01-08T18:33:59.680Z,1.91
2019-01-08T18:39:51.983Z,1.81
2019-01-08T18:45:25.089Z,1.80
2019-01-08T18:48:09.329Z,1.83
2019-01-08T18:50:40.641Z,1.88
2019-01-08T18:53:11.552Z,1.93
2019-01-08T18:55:59.295Z,1.93
2019-01-08T18:58:51.804Z,1.93
2019-01-08T19:01:22.653Z,1.93
2019-01-08T19:04:05.357Z,1.92
2019-01-08T19:06:47.650Z,1.91
2019-01-08T19:09:56.436Z,1.89
2019-01-08T19:12:33.803Z,1.86
2019-01-08T19:15:28.927Z,1.85
2019-01-08T19:18:01.390Z,1.86
2019-01-08T19:20:34.051Z,1.83
2019-01-08T19:23:04.891Z,1.83
2019-01-08T19:29:17.729Z,1.79
2019-01-08T19:31:48.793Z,1.78
2019-01-08T19:34:50.323Z,1.75
2019-01-08T19:43:33.287Z,1.64
2019-01-08T19:51:37.757Z,1.48
2019-01-08T19:54:27.598Z,1.45
2019-01-08T19:57:17.379Z,1.43
2019-01-08T20:00:07.230Z,1.41
2019-01-08T20:02:39.643Z,1.39
2019-01-08T20:05:10.624Z,1.36
2019-01-08T20:08:04.600Z,1.34
2019-01-08T20:10:35.454Z,1.31
2019-01-08T20:13:18.006Z,1.33
2019-01-08T20:16:03.212Z,1.34
2019-01-08T20:18:34.192Z,1.40
2019-01-08T20:21:05.249Z,1.39
2019-01-08T20:23:48.305Z,1.42
2019-01-08T20:26:22.251Z,1.47
2019-01-08T20:28:53.244Z,1.49
2019-01-08T20:31:25.154Z,1.47
2019-01-08T20:34:08.027Z,1.42
2019-01-08T20:36:55.510Z,1.37
2019-01-08T20:39:26.308Z,1.34
2019-01-08T20:42:10.791Z,1.30
2019-01-08T20:44:41.706Z,1.29
2019-01-08T20:47:12.434Z,1.25
2019-01-08T20:50:01.071Z,1.28
2019-01-08T20:52:31.895Z,1.30
2019-01-08T20:55:02.708Z,1.32
2019-01-08T20:57:44.645Z,1.37
2019-01-08T21:00:31.341Z,1.35
2019-01-08T21:08:57.540Z,1.37
2019-01-08T21:12:07.996Z,1.36
2019-01-08T21:14:39.062Z,1.40
2019-01-08T21:17:10.293Z,1.40
2019-01-08T21:20:01.672Z,1.38
2019-01-08T21:22:51.618Z,1.34
2019-01-08T21:25:22.422Z,1.33
2019-01-08T21:28:31.496Z,1.34
2019-01-08T21:31:16.311Z,1.33
2019-01-08T21:33:47.182Z,1.28
2019-01-08T21:36:29.349Z,1.24
2019-01-08T21:39:00.700Z,1.23
2019-01-08T21:41:33.362Z,1.16
2019-01-08T21:44:15.810Z,1.13
2019-01-08T21:49:28.466Z,1.06
2019-01-08T21:52:18.451Z,1.04
2019-01-08T21:54:49.815Z,1.01
2019-01-08T21:57:39.759Z,0.97
2019-01-08T22:00:22.187Z,0.94
2019-01-08T22:02:53.704Z,0.93
2019-01-08T22:05:24.660Z,0.90
2019-01-08T22:08:07.563Z,0.87
2019-01-08T22:10:49.685Z,0.84
2019-01-08T22:13:20.472Z,0.82
2019-01-08T22:19:02.125Z,0.78
2019-01-08T22:21:33.510Z,0.79
2019-01-08T22:24:29.251Z,0.74
2019-01-08T22:27:00.385Z,0.73
2019-01-08T22:29:33.726Z,0.70
2019-01-08T22:32:23.820Z,0.70
2019-01-08T22:35:02.051Z,0.68
2019-01-08T22:37:33.142Z,0.67
2019-01-08T22:40:23.330Z,0.68
2019-01-08T22:43:13.109Z,0.65
2019-01-08T22:45:44.257Z,0.66
2019-01-08T22:48:27.238Z,0.63
2019-01-08T22:50:58.326Z,0.65
2019-01-08T22:56:39.699Z,0.63
2019-01-08T23:02:21.930Z,0.61
2019-01-08T23:04:53.084Z,0.60
2019-01-08T23:10:25.733Z,0.58
2019-01-08T23:15:50.720Z,0.57
2019-01-08T23:18:21.950Z,0.57
2019-01-08T23:23:47.354Z,0.54
2019-01-08T23:26:20.752Z,0.54
2019-01-08T23:28:51.885Z,0.52
2019-01-08T23:31:42.048Z,0.52
2019-01-08T23:40:18.445Z,0.47
2019-01-08T23:51:43.374Z,0.46
2019-01-08T23:54:14.513Z,0.43
2019-01-08T23:56:56.360Z,0.41
2019-01-08T23:59:40.294Z,0.42
